createdAt,value
2017-09-12T00:00:01.892Z,98940
2017-09-12T00:02:31.786Z,98937
2017-09-12T00:05:02.146Z,98950
2017-09-12T00:07:32.016Z,98945
2017-09-12T00:10:02.317Z,98943
2017-09-12T00:12:32.180Z,98944
2017-09-12T00:15:02.041Z,98943
2017-09-12T00:17:31.995Z,98953
2017-09-12T00:20:02.039Z,98951
2017-09-12T00:22:32.276Z,98952
2017-09-12T00:25:02.183Z,98958
2017-09-12T00:27:32.127Z,98956
2017-09-12T00:30:02.109Z,98948
2017-09-12T00:32:31.979Z,98951
2017-09-12T00:35:01.862Z,98940
2017-09-12T00:37:31.771Z,98950
2017-09-12T00:40:01.999Z,98951
2017-09-12T00:42:31.881Z,98942
2017-09-12T00:45:02.209Z,98947
2017-09-12T00:47:32.099Z,98943
2017-09-12T00:50:02.379Z,98947
2017-09-12T00:52:32.254Z,98953
2017-09-12T00:55:02.128Z,98942
2017-09-12T00:57:32.021Z,98949
2017-09-12T01:00:01.888Z,98943
2017-09-12T01:02:32.095Z,98945
2017-09-12T01:05:01.965Z,98938
2017-09-12T01:07:32.255Z,98944
2017-09-12T01:10:02.126Z,98946
2017-09-12T01:12:32.069Z,98960
2017-09-12T01:15:01.953Z,98956
2017-09-12T01:17:31.813Z,98958
2017-09-12T01:20:02.052Z,98951
2017-09-12T01:22:31.927Z,98952
2017-09-12T01:25:02.200Z,98959
2017-09-12T01:27:32.083Z,98952
2017-09-12T01:30:01.948Z,98948
2017-09-12T01:32:31.821Z,98945
2017-09-12T01:35:01.688Z,98961
2017-09-12T01:37:31.956Z,98953
2017-09-12T01:40:01.882Z,98953
2017-09-12T01:42:32.185Z,98950
2017-09-12T01:45:02.061Z,98956
2017-09-12T01:47:32.333Z,98948
2017-09-12T01:50:02.217Z,98951
2017-09-12T01:52:32.111Z,98949
2017-09-12T01:55:02.042Z,98938
2017-09-12T01:57:31.906Z,98940
2017-09-12T02:00:02.201Z,98943
2017-09-12T02:02:32.077Z,98949
2017-09-12T02:05:02.361Z,98947
2017-09-12T02:07:32.249Z,98962
2017-09-12T02:10:02.164Z,98961
2017-09-12T02:12:32.079Z,98964
2017-09-12T02:15:01.946Z,98952
2017-09-12T02:17:32.152Z,98977
2017-09-12T02:20:02.051Z,98960
2017-09-12T02:22:32.331Z,98964
2017-09-12T02:25:02.223Z,98966
2017-09-12T02:27:32.113Z,98966
2017-09-12T02:30:02.076Z,98963
2017-09-12T02:32:31.950Z,98959
2017-09-12T02:35:02.236Z,98965
2017-09-12T02:37:32.110Z,98973
2017-09-12T02:40:02.362Z,98963
2017-09-12T02:42:32.252Z,98973
2017-09-12T02:45:02.156Z,98963
2017-09-12T02:47:32.356Z,98961
2017-09-12T02:50:02.286Z,98977
2017-09-12T02:52:32.648Z,98978
2017-09-12T02:55:02.523Z,98973
2017-09-12T02:57:32.751Z,98971
2017-09-12T03:00:02.650Z,98974
2017-09-12T03:02:32.848Z,98976
2017-09-12T03:05:02.710Z,98979
2017-09-12T03:07:32.920Z,98987
2017-09-12T03:10:02.789Z,98984
2017-09-12T03:12:33.052Z,98978
2017-09-12T03:15:02.937Z,98987
2017-09-12T03:17:33.173Z,98985
2017-09-12T03:20:03.055Z,98979
2017-09-12T03:22:33.336Z,98980
2017-09-12T03:25:03.204Z,98993
2017-09-12T03:27:33.056Z,99000
2017-09-12T03:30:02.999Z,98999
2017-09-12T03:32:32.879Z,99003
2017-09-12T03:35:03.130Z,98998
2017-09-12T03:37:33.009Z,98815
2017-09-12T03:40:03.239Z,99010
2017-09-12T03:42:33.117Z,99012
2017-09-12T03:45:03.008Z,99014
2017-09-12T03:47:32.901Z,99015
2017-09-12T03:50:02.780Z,99014
2017-09-12T03:52:33.127Z,98997
2017-09-12T03:55:03.009Z,99013
2017-09-12T03:57:33.358Z,99012
2017-09-12T04:00:03.210Z,99014
2017-09-12T04:02:33.122Z,99003
2017-09-12T04:05:02.967Z,99005
2017-09-12T04:07:32.844Z,99009
2017-09-12T04:10:03.104Z,99017
2017-09-12T04:12:32.976Z,99012
2017-09-12T04:15:03.332Z,99016
2017-09-12T04:17:33.188Z,99016
2017-09-12T04:20:03.066Z,99019
2017-09-12T04:22:32.990Z,99021
2017-09-12T04:25:02.832Z,99021
2017-09-12T04:27:33.002Z,99019
2017-09-12T04:30:02.891Z,99011
2017-09-12T04:32:33.164Z,99013
2017-09-12T04:35:03.061Z,99012
2017-09-12T04:37:33.290Z,99017
2017-09-12T04:40:03.186Z,99031
2017-09-12T04:42:33.078Z,99022
2017-09-12T04:45:02.932Z,99028
2017-09-12T04:47:32.783Z,99028
2017-09-12T04:50:03.014Z,99030
2017-09-12T04:52:32.912Z,99042
2017-09-12T04:55:03.202Z,99043
2017-09-12T04:57:33.099Z,99039
2017-09-12T05:00:03.355Z,99038
2017-09-12T05:02:33.207Z,99044
2017-09-12T05:05:03.118Z,99039
2017-09-12T05:07:32.973Z,99052
2017-09-12T05:10:02.858Z,99056
2017-09-12T05:12:33.255Z,99061
2017-09-12T05:15:03.113Z,99064
2017-09-12T05:17:33.546Z,99053
2017-09-12T05:20:03.400Z,99057
2017-09-12T05:22:33.605Z,99057
2017-09-12T05:25:03.673Z,99061
2017-09-12T05:27:33.938Z,99062
2017-09-12T05:30:03.817Z,99066
2017-09-12T05:32:34.070Z,99065
2017-09-12T05:35:04.169Z,99070
2017-09-12T05:37:34.408Z,99065
2017-09-12T05:40:04.286Z,99070
2017-09-12T05:42:34.227Z,99072
2017-09-12T05:45:04.119Z,99073
2017-09-12T05:47:33.970Z,99077
2017-09-12T05:50:04.493Z,99081
2017-09-12T05:52:34.549Z,99075
2017-09-12T05:55:04.895Z,99072
2017-09-12T05:57:34.769Z,99082
2017-09-12T06:00:05.051Z,99082
2017-09-12T06:02:34.981Z,99094
2017-09-12T06:05:05.254Z,99089
2017-09-12T06:07:35.141Z,99093
2017-09-12T06:10:05.049Z,99097
2017-09-12T06:12:34.977Z,99102
2017-09-12T06:15:04.872Z,99102
2017-09-12T06:17:35.095Z,99100
2017-09-12T06:20:05.066Z,99104
2017-09-12T06:22:35.422Z,99104
2017-09-12T06:25:05.367Z,99111
2017-09-12T06:27:35.677Z,99116
2017-09-12T06:30:05.574Z,99117
2017-09-12T06:32:35.810Z,99109
2017-09-12T06:35:05.722Z,99121
2017-09-12T06:40:12.204Z,99097
2017-09-12T06:42:42.491Z,99126
2017-09-12T06:45:12.367Z,99127
2017-09-12T06:47:42.657Z,99124
2017-09-12T06:50:12.613Z,99129
2017-09-12T06:52:42.891Z,99134
2017-09-12T06:55:12.754Z,99139
2017-09-12T06:57:43.010Z,99123
2017-09-12T07:00:12.904Z,99140
2017-09-12T07:02:43.159Z,99126
2017-09-12T07:05:13.050Z,99138
2017-09-12T07:07:43.481Z,99145
2017-09-12T07:10:13.385Z,99152
2017-09-12T07:12:43.594Z,99153
2017-09-12T07:15:13.532Z,99154
2017-09-12T07:17:43.853Z,99160
2017-09-12T07:20:13.809Z,99161
2017-09-12T07:22:44.298Z,99155
2017-09-12T07:25:14.280Z,99164
2017-09-12T07:27:44.531Z,99171
2017-09-12T07:30:14.445Z,99174
2017-09-12T07:32:44.710Z,99168
2017-09-12T07:35:14.628Z,99181
2017-09-12T07:37:45.044Z,99182
2017-09-12T07:40:14.990Z,99189
2017-09-12T07:42:45.235Z,99194
2017-09-12T07:45:15.144Z,99194
2017-09-12T07:47:45.079Z,99209
2017-09-12T07:50:15.078Z,99213
2017-09-12T07:52:44.998Z,99209
2017-09-12T07:55:15.341Z,99223
2017-09-12T07:57:45.318Z,99229
2017-09-12T08:00:15.609Z,99222
2017-09-12T08:02:45.502Z,99238
2017-09-12T08:05:15.871Z,99238
2017-09-12T08:07:45.790Z,99244
2017-09-12T08:10:16.013Z,99247
2017-09-12T08:12:45.898Z,99257
2017-09-12T08:15:16.144Z,99253
2017-09-12T08:17:46.071Z,99250
2017-09-12T08:20:16.278Z,99255
2017-09-12T08:22:46.194Z,99257
2017-09-12T08:25:16.822Z,99254
2017-09-12T08:27:46.715Z,99254
2017-09-12T08:30:17.090Z,99264
2017-09-12T08:35:23.783Z,99260
2017-09-12T08:37:53.662Z,99268
2017-09-12T08:40:23.917Z,99267
2017-09-12T08:42:53.797Z,99270
2017-09-12T08:45:24.257Z,99273
2017-09-12T08:47:54.153Z,99271
2017-09-12T08:50:24.095Z,99277
2017-09-12T08:52:53.994Z,99279
2017-09-12T08:55:23.867Z,99295
2017-09-12T08:57:54.281Z,99291
2017-09-12T09:00:24.160Z,99289
2017-09-12T09:02:54.415Z,99293
2017-09-12T09:05:24.296Z,99292
2017-09-12T09:07:54.630Z,99300
2017-09-12T09:10:24.539Z,99305
2017-09-12T09:12:54.855Z,99296
2017-09-12T09:15:24.753Z,99308
2017-09-12T09:17:55.088Z,99298
2017-09-12T09:20:24.964Z,99293
2017-09-12T09:22:55.225Z,99296
2017-09-12T09:25:25.122Z,99300
2017-09-12T09:27:55.358Z,99313
2017-09-12T09:30:25.243Z,99306
2017-09-12T09:32:55.163Z,99317
2017-09-12T09:35:25.093Z,99321
2017-09-12T09:37:55.181Z,99318
2017-09-12T09:40:25.635Z,99305
2017-09-12T09:42:55.597Z,99321
2017-09-12T09:45:25.882Z,99321
2017-09-12T09:47:55.890Z,99322
2017-09-12T09:50:26.199Z,99323
2017-09-12T09:52:56.106Z,99324
2017-09-12T09:55:26.350Z,99326
2017-09-12T09:57:56.270Z,99309
2017-09-12T10:00:26.174Z,99343
2017-09-12T10:02:56.077Z,99349
2017-09-12T10:05:25.970Z,99346
2017-09-12T10:07:56.312Z,99352
2017-09-12T10:10:26.290Z,99337
2017-09-12T10:12:56.633Z,99348
2017-09-12T10:15:26.520Z,99338
2017-09-12T10:17:56.852Z,99345
2017-09-12T10:20:26.763Z,99343
2017-09-12T10:22:57.236Z,99347
2017-09-12T10:25:27.216Z,99345
2017-09-12T10:27:57.592Z,99340
2017-09-12T10:30:27.612Z,99351
2017-09-12T10:32:57.964Z,99346
2017-09-12T10:35:27.834Z,99352
2017-09-12T10:37:58.066Z,99345
2017-09-12T10:40:28.040Z,99345
2017-09-12T10:42:58.291Z,99348
2017-09-12T10:45:28.194Z,99353
2017-09-12T10:47:58.114Z,99355
2017-09-12T10:50:28.129Z,99361
2017-09-12T10:52:58.466Z,99362
2017-09-12T10:55:28.702Z,99367
2017-09-12T10:57:58.629Z,99360
2017-09-12T11:00:28.914Z,99376
2017-09-12T11:02:58.838Z,99370
2017-09-12T11:05:29.266Z,99382
2017-09-12T11:07:59.478Z,99379
2017-09-12T11:10:29.788Z,99379
2017-09-12T11:12:59.860Z,99380
2017-09-12T11:15:30.190Z,99394
2017-09-12T11:18:00.130Z,99396
2017-09-12T11:20:30.382Z,99398
2017-09-12T11:23:00.265Z,99397
2017-09-12T11:25:30.182Z,99405
2017-09-12T11:28:00.138Z,99405
2017-09-12T11:30:30.046Z,99398
2017-09-12T11:33:00.279Z,99399
2017-09-12T11:35:30.249Z,99400
2017-09-12T11:38:00.154Z,99402
2017-09-12T11:40:30.061Z,99395
2017-09-12T11:43:00.036Z,99388
2017-09-12T11:45:30.353Z,99394
2017-09-12T11:48:01.386Z,99399
2017-09-12T11:50:31.746Z,99408
2017-09-12T11:53:01.678Z,99397
2017-09-12T11:55:31.918Z,99399
2017-09-12T11:58:02.308Z,99409
2017-09-12T12:00:32.706Z,99405
2017-09-12T12:03:02.604Z,99411
2017-09-12T12:05:32.910Z,99412
2017-09-12T12:08:02.760Z,99420
2017-09-12T12:10:33.054Z,99428
2017-09-12T12:13:02.947Z,99426
2017-09-12T12:15:33.214Z,99431
2017-09-12T12:18:03.087Z,99433
2017-09-12T12:20:32.999Z,99440
2017-09-12T12:23:02.963Z,99441
2017-09-12T12:25:32.955Z,99452
2017-09-12T12:28:03.437Z,99468
2017-09-12T12:30:33.364Z,99476
2017-09-12T12:33:03.588Z,99468
2017-09-12T12:35:33.465Z,99467
2017-09-12T12:38:03.770Z,99460
2017-09-12T12:40:33.782Z,99465
2017-09-12T12:43:04.067Z,99464
2017-09-12T12:45:33.991Z,99468
2017-09-12T12:48:04.303Z,99469
2017-09-12T12:50:34.276Z,99466
2017-09-12T12:53:04.187Z,99468
2017-09-12T12:55:34.117Z,99468
2017-09-12T12:58:04.157Z,99471
2017-09-12T13:00:34.490Z,99476
2017-09-12T13:03:04.386Z,99466
2017-09-12T13:05:34.748Z,99484
2017-09-12T13:08:04.621Z,99482
2017-09-12T13:10:34.865Z,99485
2017-09-12T13:13:04.758Z,99487
2017-09-12T13:15:35.151Z,99475
2017-09-12T13:18:05.056Z,99495
2017-09-12T13:20:35.319Z,99496
2017-09-12T13:23:05.203Z,99490
2017-09-12T13:25:35.097Z,99507
2017-09-12T13:28:05.055Z,99506
2017-09-12T13:30:34.931Z,99523
2017-09-12T13:33:04.834Z,99547
2017-09-12T13:35:34.740Z,99549
2017-09-12T13:38:05.008Z,99543
2017-09-12T13:40:35.040Z,99550
2017-09-12T13:43:05.335Z,99551
2017-09-12T13:45:35.217Z,99548
2017-09-12T13:48:05.095Z,99550
2017-09-12T13:50:34.980Z,99547
2017-09-12T13:53:04.847Z,99549
2017-09-12T13:55:35.159Z,99547
2017-09-12T13:58:05.055Z,99546
2017-09-12T14:00:35.401Z,99539
2017-09-12T14:03:05.295Z,99552
2017-09-12T14:05:35.315Z,99564
2017-09-12T14:08:05.263Z,99567
2017-09-12T14:10:35.577Z,99569
2017-09-12T14:13:05.562Z,99574
2017-09-12T14:15:35.908Z,99560
2017-09-12T14:18:05.979Z,99571
2017-09-12T14:20:36.227Z,99574
2017-09-12T14:23:06.121Z,99560
2017-09-12T14:25:36.041Z,99567
2017-09-12T14:28:05.949Z,99563
2017-09-12T14:30:36.441Z,99568
2017-09-12T14:33:06.372Z,99574
2017-09-12T14:35:36.271Z,99524
2017-09-12T14:38:06.173Z,99577
2017-09-12T14:40:36.120Z,99577
2017-09-12T14:43:06.006Z,99587
2017-09-12T14:45:35.952Z,99562
2017-09-12T14:48:05.946Z,99587
2017-09-12T14:50:37.310Z,99585
2017-09-12T14:53:07.261Z,99589
2017-09-12T14:55:37.191Z,99587
2017-09-12T14:58:07.654Z,99588
2017-09-12T15:00:37.563Z,99592
2017-09-12T15:03:07.887Z,99585
2017-09-12T15:05:37.770Z,99591
2017-09-12T15:08:08.237Z,99588
2017-09-12T15:10:38.147Z,99595
2017-09-12T15:13:08.381Z,99391
2017-09-12T15:15:38.348Z,99593
2017-09-12T15:18:08.657Z,99595
2017-09-12T15:20:38.595Z,99578
2017-09-12T15:23:08.879Z,99590
2017-09-12T15:25:38.853Z,99589
2017-09-12T15:28:09.146Z,99596
2017-09-12T15:30:39.138Z,99597
2017-09-12T15:33:09.460Z,99606
2017-09-12T15:35:39.394Z,99602
2017-09-12T15:38:09.800Z,99610
2017-09-12T15:40:39.687Z,99607
2017-09-12T15:43:10.034Z,99619
2017-09-12T15:45:39.972Z,99611
2017-09-12T15:48:10.197Z,99608
2017-09-12T15:50:40.136Z,99606
2017-09-12T15:53:10.185Z,99619
2017-09-12T15:55:40.081Z,99618
2017-09-12T15:58:09.978Z,99617
2017-09-12T16:00:40.286Z,99613
2017-09-12T16:03:10.258Z,99628
2017-09-12T16:05:40.711Z,99636
2017-09-12T16:08:10.692Z,99636
2017-09-12T16:10:40.863Z,99638
2017-09-12T16:13:10.758Z,99643
2017-09-12T16:15:40.918Z,99642
2017-09-12T16:18:10.936Z,99647
2017-09-12T16:20:40.996Z,99648
2017-09-12T16:23:10.932Z,99647
2017-09-12T16:25:41.037Z,99650
2017-09-12T16:28:10.995Z,99651
2017-09-12T16:30:41.124Z,99649
2017-09-12T16:33:11.027Z,99648
2017-09-12T16:35:41.149Z,99656
2017-09-12T16:38:11.056Z,99652
2017-09-12T16:40:41.147Z,99655
2017-09-12T16:43:11.074Z,99655
2017-09-12T16:45:41.179Z,99659
2017-09-12T16:48:11.124Z,99598
2017-09-12T16:50:41.311Z,99667
2017-09-12T16:53:11.268Z,99671
2017-09-12T16:55:41.233Z,99673
2017-09-12T16:58:11.122Z,99672
2017-09-12T17:00:41.187Z,99672
2017-09-12T17:03:11.097Z,99661
2017-09-12T17:05:41.306Z,99672
2017-09-12T17:08:11.248Z,99666
2017-09-12T17:10:41.323Z,99670
2017-09-12T17:13:11.268Z,99672
2017-09-12T17:15:41.269Z,99676
2017-09-12T17:18:11.213Z,99680
2017-09-12T17:20:41.194Z,99687
2017-09-12T17:23:11.094Z,99681
2017-09-12T17:25:40.974Z,99691
2017-09-12T17:28:10.969Z,99684
2017-09-12T17:30:40.959Z,99688
2017-09-12T17:33:10.894Z,99690
2017-09-12T17:35:40.804Z,99691
2017-09-12T17:38:10.742Z,99695
2017-09-12T17:40:40.818Z,99696
2017-09-12T17:43:11.061Z,99699
2017-09-12T17:45:41.052Z,99696
2017-09-12T17:48:11.170Z,99700
2017-09-12T17:50:41.347Z,99704
2017-09-12T17:53:11.648Z,99706
2017-09-12T17:55:41.741Z,99717
2017-09-12T17:58:12.019Z,99714
2017-09-12T18:00:42.242Z,99718
2017-09-12T18:03:12.510Z,99720
2017-09-12T18:05:42.597Z,99718
2017-09-12T18:08:13.067Z,99723
2017-09-12T18:10:43.260Z,99724
2017-09-12T18:13:13.579Z,99736
2017-09-12T18:15:43.704Z,99727
2017-09-12T18:18:14.356Z,99727
2017-09-12T18:20:44.482Z,99735
2017-09-12T18:23:15.256Z,99740
2017-09-12T18:25:45.598Z,99745
2017-09-12T18:28:17.602Z,99742
2017-09-12T18:30:47.950Z,99744
2017-09-12T18:33:18.497Z,99750
2017-09-12T18:35:48.580Z,99737
2017-09-12T18:38:20.189Z,99759
2017-09-12T18:40:50.346Z,99745
2017-09-12T18:43:20.944Z,99759
2017-09-12T18:45:51.206Z,99759
2017-09-12T18:48:21.668Z,99754
2017-09-12T18:50:51.742Z,99762
2017-09-12T18:53:22.198Z,99630
2017-09-12T18:55:52.283Z,99764
2017-09-12T18:58:22.676Z,99764
2017-09-12T19:00:52.805Z,99759
2017-09-12T19:03:24.159Z,99760
2017-09-12T19:05:54.174Z,99756
2017-09-12T19:08:24.696Z,99762
2017-09-12T19:10:54.753Z,99754
2017-09-12T19:13:25.898Z,99755
2017-09-12T19:15:56.018Z,99761
2017-09-12T19:18:26.456Z,99768
2017-09-12T19:20:56.868Z,99767
2017-09-12T19:23:27.275Z,99780
2017-09-12T19:25:58.241Z,99768
2017-09-12T19:28:28.793Z,99772
2017-09-12T19:30:58.820Z,99782
2017-09-12T19:33:29.209Z,99782
2017-09-12T19:36:00.206Z,99771
2017-09-12T19:38:30.901Z,99774
2017-09-12T19:41:00.944Z,99781
2017-09-12T19:43:31.454Z,99780
2017-09-12T19:46:01.609Z,99787
2017-09-12T19:48:33.194Z,99788
2017-09-12T19:51:03.243Z,99780
2017-09-12T19:53:33.665Z,99784
2017-09-12T19:56:03.767Z,99797
2017-09-12T19:58:34.253Z,99786
2017-09-12T20:01:04.449Z,99784
2017-09-12T20:03:34.833Z,99786
2017-09-12T20:06:04.886Z,99788
2017-09-12T20:08:35.331Z,99785
2017-09-12T20:11:05.494Z,99762
2017-09-12T20:13:36.441Z,99787
2017-09-12T20:16:06.608Z,99786
2017-09-12T20:18:37.235Z,99784
2017-09-12T20:21:07.302Z,99785
2017-09-12T20:23:37.692Z,99774
2017-09-12T20:26:07.799Z,99780
2017-09-12T20:28:38.300Z,99762
2017-09-12T20:31:08.268Z,99781
2017-09-12T20:33:38.625Z,99774
2017-09-12T20:36:08.564Z,99773
2017-09-12T20:38:38.963Z,99765
2017-09-12T20:41:08.898Z,99779
2017-09-12T20:43:39.280Z,99772
2017-09-12T20:46:09.192Z,99778
2017-09-12T20:48:39.475Z,99775
2017-09-12T20:51:09.654Z,99772
2017-09-12T20:53:39.913Z,99780
2017-09-12T20:56:09.899Z,99782
2017-09-12T20:58:40.149Z,99785
2017-09-12T21:01:10.046Z,99784
2017-09-12T21:03:40.365Z,99795
2017-09-12T21:06:10.264Z,99791
2017-09-12T21:08:40.268Z,99798
2017-09-12T21:11:10.159Z,99776
2017-09-12T21:13:40.216Z,99793
2017-09-12T21:16:10.985Z,99795
2017-09-12T21:18:41.038Z,99804
2017-09-12T21:21:11.315Z,99797
2017-09-12T21:23:41.212Z,99797
2017-09-12T21:26:11.228Z,99805
2017-09-12T21:28:41.070Z,99797
2017-09-12T21:31:10.991Z,99800
2017-09-12T21:33:41.278Z,99802
2017-09-12T21:36:11.199Z,99800
2017-09-12T21:38:41.243Z,99804
2017-09-12T21:41:11.231Z,99806
2017-09-12T21:43:41.158Z,99813
2017-09-12T21:46:11.602Z,99810
2017-09-12T21:48:41.531Z,99809
2017-09-12T21:51:12.630Z,99822
2017-09-12T21:53:42.615Z,99826
2017-09-12T21:56:12.929Z,99824
2017-09-12T21:58:43.051Z,99813
2017-09-12T22:01:13.320Z,99811
2017-09-12T22:03:43.257Z,99806
2017-09-12T22:06:13.216Z,99805
2017-09-12T22:08:43.211Z,99809
2017-09-12T22:11:13.193Z,99802
2017-09-12T22:13:43.463Z,99801
2017-09-12T22:16:13.401Z,99804
2017-09-12T22:18:43.640Z,99789
2017-09-12T22:21:13.578Z,99803
2017-09-12T22:23:43.836Z,99790
2017-09-12T22:26:13.751Z,99722
2017-09-12T22:28:44.196Z,99788
2017-09-12T22:31:14.088Z,99791
2017-09-12T22:33:44.476Z,99788
2017-09-12T22:36:14.369Z,99783
2017-09-12T22:38:44.662Z,99780
2017-09-12T22:41:14.777Z,99778
2017-09-12T22:43:45.101Z,99772
2017-09-12T22:46:15.023Z,99771
2017-09-12T22:48:45.286Z,99776
2017-09-12T22:51:15.217Z,99772
2017-09-12T22:53:45.124Z,99755
2017-09-12T22:56:15.036Z,99758
2017-09-12T22:58:44.919Z,99742
2017-09-12T23:01:15.222Z,99742
2017-09-12T23:03:45.171Z,99747
2017-09-12T23:06:15.406Z,99740
2017-09-12T23:08:45.277Z,99730
2017-09-12T23:11:15.211Z,99729
2017-09-12T23:13:45.091Z,99730
2017-09-12T23:16:14.962Z,99722
2017-09-12T23:18:45.197Z,99730
2017-09-12T23:21:15.065Z,99735
2017-09-12T23:23:45.350Z,99739
2017-09-12T23:26:15.209Z,99739
2017-09-12T23:28:45.122Z,99730
2017-09-12T23:31:14.994Z,99724
2017-09-12T23:33:44.866Z,99708
2017-09-12T23:36:15.101Z,99624
2017-09-12T23:38:44.965Z,99714
2017-09-12T23:41:15.343Z,99699
2017-09-12T23:43:45.211Z,99703
2017-09-12T23:46:15.164Z,99702
2017-09-12T23:48:45.023Z,99694
2017-09-12T23:51:14.897Z,99688
2017-09-12T23:53:45.125Z,99689
2017-09-12T23:56:15.011Z,99686
2017-09-12T23:58:45.374Z,99679
